aviador You're here:

KAKR Decoded Metar

AKRON in OH, USA
Report Time2018-01-16 20:54:00
UTC Time2018-01-16 21:19:12
Flight Rules vfr VFR
Wind230° at 07 kt
W.Decomp.*RWY 25: 6.8 kt HW 1.6 kt LCW
RWY 19: 4.8 kt HW 5.1 kt RCW
W.Rank230° ranks 4
Current wind is below 230° avg. (9.2)
Visibility9999 m
Phenomena:N/A
Clouds:N/A
Expected CloudBase > 2,400 ft AGL from Temp-Dew spread
CeilingNone
Temp-11°C (ISA -24)
Dew Point-17°C (62% RH)
AAT-17.0°C
QNH1028 hPa
Density Alt-2,247 ft
Elevation1,191 ft
Report Wrong Elevation
Raw Report
KAKR 162054Z AUTO 23007KT 10SM CLR M11/M17 A3037 RMK AO2 SLP305
T11111167 55000 $=

Extra information for KAKR:More info

Metar Taf Metar & Taf Last 4 Metars F.Rules Stats Wind Profile Meteogram Temp Stats Airport Information Weather charts Add Link Nearby VenuesMetar ALERT Operation Metar Decoded Social comments

AIRNAV info for KAKR